Time;durP1;ratioP1;P1;durP2;ratioP2;P2;SDS_P1;SDS_P2;PMS_P1;PMS_P2;Temp;Humidity;BMP_temperature;BMP_pressure;BME280_temperature;BME280_humidity;BME280_pressure;Samples;Min_cycle;Max_cycle;Signal;HPM_P1;HPM_P2
2022/01/30 00:01:54;;;;;;;27.90;4.80;;;6.00;99.90;;;;;;5050041;28;20099;-58
2022/01/30 00:04:20;;;;;;;23.95;4.95;;;6.10;99.90;;;;;;5050091;28;20044;-59
2022/01/30 00:06:46;;;;;;;28.17;4.75;;;6.20;99.90;;;;;;5049999;28;20125;-57
2022/01/30 00:09:21;;;;;;;33.63;5.97;;;6.30;99.90;;;;;;5050012;28;20079;-59
2022/01/30 00:11:52;;;;;;;25.15;4.45;;;6.30;99.90;;;;;;5050014;28;20044;-59
2022/01/30 00:14:20;;;;;;;38.05;5.45;;;6.40;99.90;;;;;;5112399;28;20035;-58
2022/01/30 00:16:48;;;;;;;38.45;5.18;;;6.40;99.90;;;;;;5112291;28;20393;-58
2022/01/30 00:19:23;;;;;;;34.40;7.13;;;6.30;99.90;;;;;;5112625;28;20550;-58
2022/01/30 00:22:00;;;;;;;30.80;5.80;;;6.30;99.90;;;;;;5112696;28;20084;-58
2022/01/30 00:24:42;;;;;;;21.08;4.80;;;6.30;99.90;;;;;;5119368;28;20047;-58
2022/01/30 00:27:12;;;;;;;21.48;4.03;;;6.20;99.90;;;;;;5119201;28;20074;-58
2022/01/30 00:29:37;;;;;;;26.42;5.97;;;6.10;99.90;;;;;;5119876;28;20064;-58
2022/01/30 00:32:03;;;;;;;26.38;5.15;;;6.20;99.90;;;;;;5119167;28;20122;-58
2022/01/30 00:34:29;;;;;;;24.58;4.43;;;6.20;99.90;;;;;;5119447;28;20035;-58
2022/01/30 00:36:54;;;;;;;18.27;3.40;;;6.20;99.90;;;;;;5119008;28;20540;-58
2022/01/30 00:39:20;;;;;;;13.40;2.88;;;6.10;99.90;;;;;;5119173;28;20050;-60
2022/01/30 00:41:46;;;;;;;15.85;2.40;;;5.90;99.90;;;;;;5119078;28;20035;-59
2022/01/30 00:44:11;;;;;;;13.70;2.60;;;5.80;99.90;;;;;;5119244;28;20046;-58
2022/01/30 00:46:38;;;;;;;13.38;2.63;;;5.70;99.90;;;;;;5119162;28;20478;-60
2022/01/30 00:49:03;;;;;;;14.68;3.42;;;5.60;99.90;;;;;;5118960;28;20049;-58
2022/01/30 00:51:29;;;;;;;24.63;4.60;;;5.50;99.90;;;;;;5119463;28;20047;-60
2022/01/30 00:53:55;;;;;;;17.58;3.67;;;5.70;99.90;;;;;;5118895;28;20044;-58
2022/01/30 00:56:20;;;;;;;29.38;5.53;;;5.70;99.90;;;;;;5100937;28;20048;-60
2022/01/30 00:58:46;;;;;;;37.67;6.05;;;5.70;99.90;;;;;;5118962;28;20035;-59
2022/01/30 01:01:11;;;;;;;34.05;6.65;;;5.80;99.90;;;;;;5118738;28;20118;-60
2022/01/30 01:03:37;;;;;;;31.15;6.57;;;5.80;99.90;;;;;;5119011;28;20047;-59
2022/01/30 01:06:05;;;;;;;37.08;5.97;;;5.80;99.90;;;;;;5118971;28;20071;-59
2022/01/30 01:08:36;;;;;;;33.05;6.03;;;5.70;99.90;;;;;;5118868;28;20114;-60
2022/01/30 01:11:27;;;;;;;28.55;5.40;;;5.70;99.90;;;;;;5118792;28;20110;-59
2022/01/30 01:24:54;;;;;;;34.90;6.28;;;5.70;99.90;;;;;;5035973;28;20102;-58
2022/01/30 01:27:19;;;;;;;49.15;8.05;;;5.80;99.90;;;;;;5036348;28;20049;-58
2022/01/30 01:29:45;;;;;;;40.20;7.25;;;5.90;99.90;;;;;;5035989;28;20128;-59
2022/01/30 01:32:11;;;;;;;35.53;5.47;;;5.90;99.90;;;;;;5035625;28;20041;-60
2022/01/30 01:34:39;;;;;;;23.40;5.15;;;6.00;99.90;;;;;;5032876;28;20044;-59
2022/01/30 01:37:09;;;;;;;32.78;6.07;;;6.10;99.90;;;;;;5032925;28;20094;-59
2022/01/30 01:39:35;;;;;;;28.98;6.00;;;6.10;99.90;;;;;;5032591;28;20042;-58
2022/01/30 01:42:01;;;;;;;31.10;5.60;;;6.10;99.90;;;;;;5032506;28;20052;-59
2022/01/30 01:44:51;;;;;;;26.48;4.55;;;6.10;99.90;;;;;;5032213;28;20515;-59
2022/01/30 01:47:20;;;;;;;30.35;5.47;;;6.00;99.90;;;;;;5032625;28;20184;-59
2022/01/30 01:49:47;;;;;;;;;;;6.00;99.90;;;;;;5032771;28;20063;-60
2022/01/30 01:52:19;;;;;;;28.10;5.07;;;6.00;99.90;;;;;;5032416;28;20387;-59
2022/01/30 01:55:06;;;;;;;27.55;4.50;;;5.90;99.90;;;;;;5032583;28;20490;-60
2022/01/30 01:57:31;;;;;;;18.20;4.22;;;5.90;99.90;;;;;;5031907;28;20496;-57
2022/01/30 01:59:59;;;;;;;34.50;4.95;;;5.80;99.90;;;;;;5032394;28;20038;-58
2022/01/30 02:02:26;;;;;;;26.80;5.65;;;5.80;99.90;;;;;;5098617;28;20051;-60
2022/01/30 02:04:52;;;;;;;30.40;5.68;;;5.70;99.90;;;;;;5114894;28;20067;-59
2022/01/30 02:09:45;;;;;;;37.83;7.32;;;5.90;99.90;;;;;;5114761;28;20079;-60
2022/01/30 02:12:17;;;;;;;31.90;6.35;;;5.90;99.90;;;;;;5114945;28;20036;-57
2022/01/30 02:15:03;;;;;;;37.67;6.47;;;5.90;99.90;;;;;;5114910;28;20042;-58
2022/01/30 02:25:49;;;;;;;26.23;5.57;;;6.00;99.90;;;;;;5114537;28;20039;-58
2022/01/30 02:28:17;;;;;;;33.67;5.72;;;6.10;99.90;;;;;;5114713;28;20182;-59
2022/01/30 02:30:51;;;;;;;32.58;5.70;;;5.90;99.90;;;;;;5114699;28;20046;-58
2022/01/30 02:33:20;;;;;;;27.95;6.18;;;5.90;99.90;;;;;;5114135;28;20051;-58
2022/01/30 02:35:45;;;;;;;33.90;6.00;;;5.80;99.90;;;;;;5114423;28;20043;-60
2022/01/30 02:38:11;;;;;;;32.28;7.40;;;5.80;99.90;;;;;;5114850;28;20628;-57
2022/01/30 02:40:41;;;;;;;32.80;5.40;;;5.90;99.90;;;;;;5114263;28;20036;-60
2022/01/30 02:43:06;;;;;;;37.78;6.20;;;5.90;99.90;;;;;;5114597;28;20382;-58
2022/01/30 02:45:35;;;;;;;29.15;6.25;;;6.00;99.90;;;;;;5114395;28;20043;-57
2022/01/30 02:48:30;;;;;;;32.55;6.50;;;6.10;99.90;;;;;;5114449;28;20036;-57
2022/01/30 02:53:15;;;;;;;46.40;7.82;;;5.90;99.90;;;;;;5113981;28;20386;-60
2022/01/30 02:55:41;;;;;;;41.15;6.60;;;5.90;99.90;;;;;;5114354;28;20039;-58
2022/01/30 02:58:06;;;;;;;40.63;7.25;;;5.90;99.90;;;;;;5095513;28;20051;-58
2022/01/30 03:00:32;;;;;;;40.92;7.03;;;6.10;99.90;;;;;;5113748;28;20118;-58
2022/01/30 03:02:58;;;;;;;48.65;7.13;;;6.00;99.90;;;;;;5113746;28;20035;-58
2022/01/30 03:05:24;;;;;;;47.50;8.85;;;6.00;99.90;;;;;;5113773;28;20035;-58
2022/01/30 03:07:51;;;;;;;41.85;7.72;;;6.10;99.90;;;;;;5095572;28;20040;-59
2022/01/30 03:10:18;;;;;;;45.28;7.53;;;6.20;99.90;;;;;;5113756;28;20043;-58
2022/01/30 03:12:44;;;;;;;40.50;7.40;;;6.10;99.90;;;;;;5095262;28;20092;-59
2022/01/30 03:15:10;;;;;;;39.30;7.45;;;6.10;99.90;;;;;;5113620;28;20041;-58
2022/01/30 03:17:35;;;;;;;39.90;8.18;;;6.10;99.90;;;;;;5095743;28;20054;-58
2022/01/30 03:20:03;;;;;;;42.67;7.80;;;6.20;99.90;;;;;;5113911;28;20039;-58
2022/01/30 03:22:29;;;;;;;50.65;9.60;;;6.10;99.90;;;;;;5113534;28;20039;-58
2022/01/30 03:24:54;;;;;;;51.17;8.35;;;6.10;99.90;;;;;;5113493;28;20462;-57
2022/01/30 03:27:20;;;;;;;42.90;6.55;;;6.00;99.90;;;;;;5113684;28;20082;-59
2022/01/30 03:30:02;;;;;;;43.33;6.43;;;6.10;99.90;;;;;;5113150;28;20464;-59
2022/01/30 03:32:28;;;;;;;39.17;8.10;;;6.10;99.90;;;;;;5113332;28;20070;-59
2022/01/30 03:34:54;;;;;;;41.15;7.28;;;6.10;99.90;;;;;;5113264;28;20035;-60
2022/01/30 03:37:19;;;;;;;43.38;6.43;;;6.20;99.90;;;;;;5094803;28;20043;-58
2022/01/30 03:39:45;;;;;;;36.38;6.90;;;6.20;99.90;;;;;;5113087;28;20128;-59
2022/01/30 03:42:11;;;;;;;37.40;7.22;;;6.20;99.90;;;;;;5113277;28;20040;-57
2022/01/30 03:44:36;;;;;;;33.88;7.55;;;6.30;99.90;;;;;;5113191;28;20055;-59
2022/01/30 03:47:03;;;;;;;40.33;6.82;;;6.30;99.90;;;;;;5113369;28;20386;-58
2022/01/30 03:49:29;;;;;;;47.42;8.13;;;6.40;99.90;;;;;;5113229;28;20047;-58
2022/01/30 03:51:54;;;;;;;42.97;6.93;;;6.40;99.90;;;;;;5113234;28;20047;-58
2022/01/30 03:54:20;;;;;;;44.38;8.90;;;6.40;99.90;;;;;;5113036;28;20043;-58
2022/01/30 03:56:46;;;;;;;43.92;9.50;;;6.40;99.90;;;;;;5112844;28;20036;-58
2022/01/30 03:59:11;;;;;;;49.65;10.23;;;6.30;99.90;;;;;;5112722;28;20032;-58
2022/01/30 04:01:38;;;;;;;33.85;6.18;;;6.40;99.90;;;;;;5112805;28;20039;-58
2022/01/30 04:04:03;;;;;;;32.13;6.28;;;6.30;99.90;;;;;;5112818;28;20393;-58
2022/01/30 04:06:29;;;;;;;44.40;8.38;;;6.00;99.90;;;;;;5112862;28;20039;-58
2022/01/30 04:08:55;;;;;;;44.65;6.72;;;6.00;99.90;;;;;;5094474;28;20047;-60
2022/01/30 04:11:22;;;;;;;38.42;7.45;;;6.10;99.90;;;;;;5113088;28;20043;-58
2022/01/30 04:13:48;;;;;;;38.33;8.18;;;6.00;99.90;;;;;;5113006;28;20043;-58
2022/01/30 04:16:14;;;;;;;45.65;7.90;;;6.10;99.90;;;;;;5112824;28;20048;-58
2022/01/30 04:18:39;;;;;;;46.50;8.05;;;6.10;99.90;;;;;;5113013;28;20027;-58
2022/01/30 04:21:05;;;;;;;47.08;8.35;;;6.00;99.90;;;;;;5113326;28;20438;-57
2022/01/30 04:23:31;;;;;;;43.97;9.57;;;6.10;99.90;;;;;;5113172;28;20057;-58
2022/01/30 04:25:56;;;;;;;39.05;7.25;;;6.10;99.90;;;;;;5112465;28;20066;-58
2022/01/30 04:28:22;;;;;;;51.78;10.75;;;6.10;99.90;;;;;;5112668;28;20039;-57
2022/01/30 04:30:48;;;;;;;46.53;8.73;;;6.20;99.90;;;;;;5112509;28;20031;-57
2022/01/30 04:33:14;;;;;;;57.13;9.75;;;6.20;99.90;;;;;;5112756;28;20028;-59
2022/01/30 04:35:40;;;;;;;45.58;8.95;;;6.30;99.90;;;;;;5112930;28;20031;-57
2022/01/30 05:07:41;;;;;;;50.65;8.50;;;6.40;99.90;;;;;;5049815;28;20048;-58
2022/01/30 05:10:07;;;;;;;54.67;9.60;;;6.50;99.90;;;;;;5051070;28;20041;-58
2022/01/30 05:12:42;;;;;;;50.88;9.60;;;6.50;99.90;;;;;;5053447;28;20045;-57
2022/01/30 05:15:09;;;;;;;55.92;10.00;;;6.50;99.90;;;;;;5053444;28;20135;-58
2022/01/30 05:17:34;;;;;;;43.53;9.50;;;6.40;99.90;;;;;;5036943;28;20041;-58
2022/01/30 05:20:02;;;;;;;46.33;9.73;;;6.40;99.90;;;;;;5052870;28;20057;-57
2022/01/30 05:22:28;;;;;;;55.15;9.35;;;6.40;99.90;;;;;;5052866;28;20041;-59
2022/01/30 05:24:54;;;;;;;51.60;8.85;;;6.30;99.90;;;;;;5053265;28;20556;-57
2022/01/30 05:27:20;;;;;;;51.45;10.00;;;6.30;99.90;;;;;;5052927;28;20049;-58
2022/01/30 05:29:46;;;;;;;44.80;9.13;;;6.20;99.90;;;;;;5052828;28;20107;-58
2022/01/30 05:32:12;;;;;;;61.83;10.55;;;6.30;99.90;;;;;;5036495;28;20480;-58
2022/01/30 05:34:38;;;;;;;49.47;9.23;;;6.20;99.90;;;;;;5093904;28;20464;-57
2022/01/30 05:37:08;;;;;;;50.88;8.45;;;6.30;99.90;;;;;;5116569;28;20338;-58
2022/01/30 05:39:33;;;;;;;51.30;8.52;;;6.30;99.90;;;;;;5115730;28;20048;-58
2022/01/30 05:42:00;;;;;;;46.92;8.60;;;6.20;99.90;;;;;;5115787;28;20076;-58
2022/01/30 05:44:39;;;;;;;61.13;9.73;;;6.30;99.90;;;;;;5115490;28;20055;-59
2022/01/30 05:47:09;;;;;;;;;;;6.30;99.90;;;;;;5116095;28;20047;-58
2022/01/30 05:49:36;;;;;;;48.97;8.73;;;6.30;99.90;;;;;;5115571;28;20269;-57
2022/01/30 05:52:02;;;;;;;61.60;11.68;;;6.30;99.90;;;;;;5097259;28;20083;-58
2022/01/30 05:54:28;;;;;;;53.47;9.90;;;6.30;99.90;;;;;;5115537;28;20074;-58
2022/01/30 05:56:53;;;;;;;44.17;8.30;;;6.30;99.90;;;;;;5115046;28;20074;-58
2022/01/30 05:59:19;;;;;;;45.20;8.57;;;6.00;99.90;;;;;;5115794;28;20036;-58
2022/01/30 06:01:45;;;;;;;42.22;7.82;;;5.80;99.90;;;;;;5115253;28;20057;-59
2022/01/30 06:04:10;;;;;;;49.78;8.02;;;5.70;99.90;;;;;;5114994;28;20104;-58
2022/01/30 06:06:36;;;;;;;49.00;9.27;;;5.70;99.90;;;;;;5115365;28;20039;-58
2022/01/30 06:12:00;;;;;;;51.25;10.25;;;5.60;99.90;;;;;;5052241;28;20055;-57
2022/01/30 06:14:25;;;;;;;55.90;9.93;;;5.70;99.90;;;;;;5051914;28;20041;-57
2022/01/30 06:16:53;;;;;;;48.70;8.15;;;5.70;99.90;;;;;;5035043;28;20045;-59
2022/01/30 06:19:19;;;;;;;50.17;8.93;;;5.80;99.90;;;;;;5052007;28;20078;-58
2022/01/30 06:21:45;;;;;;;45.83;7.78;;;5.90;99.90;;;;;;5050976;28;20531;-58
2022/01/30 06:24:11;;;;;;;39.30;8.25;;;5.90;99.90;;;;;;5051814;28;20115;-58
2022/01/30 06:26:37;;;;;;;50.05;8.88;;;5.90;99.90;;;;;;5051542;28;20049;-58
2022/01/30 06:29:03;;;;;;;49.05;8.90;;;5.90;99.90;;;;;;5051540;28;20053;-58
2022/01/30 06:31:28;;;;;;;59.83;11.48;;;5.90;99.90;;;;;;5051775;28;20043;-57
2022/01/30 06:33:54;;;;;;;60.92;8.55;;;5.90;99.90;;;;;;5051559;28;20072;-58
2022/01/30 06:36:20;;;;;;;57.60;10.05;;;5.90;99.90;;;;;;5051778;28;20045;-58
2022/01/30 06:38:47;;;;;;;62.65;9.50;;;5.90;99.90;;;;;;5051400;28;20084;-57
2022/01/30 06:41:13;;;;;;;43.20;9.30;;;6.00;99.90;;;;;;5051676;28;20530;-57
2022/01/30 06:43:40;;;;;;;51.20;8.68;;;6.00;99.90;;;;;;5051132;28;20072;-58
2022/01/30 06:46:06;;;;;;;51.65;8.85;;;6.00;99.90;;;;;;5051399;28;20083;-58
2022/01/30 06:48:31;;;;;;;59.33;9.02;;;6.10;99.90;;;;;;5107311;28;20039;-57
2022/01/30 06:50:57;;;;;;;42.50;7.90;;;6.10;99.90;;;;;;5114406;28;20122;-57
2022/01/30 06:53:24;;;;;;;45.90;9.07;;;6.10;99.90;;;;;;5114463;28;20044;-57
2022/01/30 06:55:50;;;;;;;38.72;7.97;;;6.10;99.90;;;;;;5114311;28;20590;-57
2022/01/30 06:58:16;;;;;;;47.53;8.63;;;6.10;99.90;;;;;;5114189;28;20035;-58
2022/01/30 07:00:42;;;;;;;52.22;10.60;;;6.10;99.90;;;;;;5113845;28;20440;-59
2022/01/30 07:03:07;;;;;;;56.65;11.15;;;6.10;99.90;;;;;;5113899;28;20432;-57
2022/01/30 07:05:33;;;;;;;58.00;9.57;;;6.10;99.90;;;;;;5114049;28;20039;-57
2022/01/30 07:07:59;;;;;;;43.03;9.43;;;6.00;99.90;;;;;;5095558;28;20039;-58
2022/01/30 07:10:25;;;;;;;41.88;9.20;;;6.00;99.90;;;;;;5095348;28;20124;-58
2022/01/30 07:12:51;;;;;;;54.22;9.27;;;6.00;99.90;;;;;;5114071;28;20031;-57
2022/01/30 07:15:17;;;;;;;49.33;9.68;;;6.00;99.90;;;;;;5113573;28;20470;-57
2022/01/30 07:17:42;;;;;;;57.40;9.32;;;6.00;99.90;;;;;;5113762;28;20032;-60
2022/01/30 07:20:09;;;;;;;49.40;9.02;;;6.00;99.90;;;;;;5113740;28;20500;-58
2022/01/30 07:22:36;;;;;;;42.22;8.65;;;6.10;99.90;;;;;;5113492;28;20028;-57
2022/01/30 07:25:02;;;;;;;44.03;9.32;;;6.00;99.90;;;;;;5113372;28;20035;-60
2022/01/30 07:27:28;;;;;;;52.80;8.82;;;6.00;99.90;;;;;;5113323;28;20107;-58
2022/01/30 07:29:54;;;;;;;49.92;8.32;;;6.00;99.90;;;;;;5114037;28;20075;-58
2022/01/30 07:32:19;;;;;;;43.97;7.57;;;6.00;99.90;;;;;;5112512;28;20042;-58
2022/01/30 07:34:45;;;;;;;32.75;7.38;;;6.00;99.90;;;;;;5113743;28;20122;-59
2022/01/30 07:37:12;;;;;;;44.05;9.23;;;6.00;99.90;;;;;;5095011;28;20071;-58
2022/01/30 07:39:38;;;;;;;42.45;8.02;;;6.10;99.90;;;;;;5113046;28;20101;-58
2022/01/30 07:42:04;;;;;;;42.78;7.60;;;6.00;99.90;;;;;;5113332;28;20032;-59
2022/01/30 07:44:30;;;;;;;35.78;7.05;;;6.00;99.90;;;;;;5112773;28;20176;-59
2022/01/30 07:46:56;;;;;;;39.95;7.65;;;6.00;99.90;;;;;;5113339;28;20080;-59
2022/01/30 07:49:22;;;;;;;36.83;6.88;;;6.00;99.90;;;;;;5113256;28;20116;-59
2022/01/30 07:51:48;;;;;;;41.60;7.18;;;6.00;99.90;;;;;;5113083;28;20071;-59
2022/01/30 07:54:14;;;;;;;40.08;7.32;;;6.00;99.90;;;;;;5094899;28;20043;-58
2022/01/30 07:56:39;;;;;;;36.63;7.38;;;6.00;99.90;;;;;;5112624;28;20040;-59
2022/01/30 07:59:05;;;;;;;43.50;7.88;;;6.00;99.90;;;;;;5112939;28;20036;-59
2022/01/30 08:01:31;;;;;;;38.72;7.53;;;6.00;99.90;;;;;;5112732;28;20092;-59
2022/01/30 08:03:56;;;;;;;38.92;7.97;;;6.10;99.90;;;;;;5113036;28;20027;-59
2022/01/30 08:06:22;;;;;;;51.60;8.23;;;6.00;99.90;;;;;;5112859;28;20473;-59
2022/01/30 08:08:48;;;;;;;48.03;8.50;;;6.00;99.90;;;;;;5112633;28;20032;-58
2022/01/30 08:11:13;;;;;;;45.83;8.43;;;6.00;99.90;;;;;;5112686;28;20088;-59
2022/01/30 08:13:39;;;;;;;41.95;6.97;;;6.00;99.90;;;;;;5112925;28;20078;-59
2022/01/30 08:16:05;;;;;;;44.67;7.18;;;6.10;99.90;;;;;;5112834;28;20071;-59
2022/01/30 08:18:32;;;;;;;40.00;8.18;;;6.10;99.90;;;;;;5112755;28;20040;-60
2022/01/30 08:20:58;;;;;;;44.90;9.35;;;6.00;99.90;;;;;;5112580;28;20184;-59
2022/01/30 08:23:27;;;;;;;42.78;7.13;;;6.10;99.90;;;;;;5112497;28;20140;-60
2022/01/30 08:25:53;;;;;;;;;;;6.10;99.90;;;;;;5112912;28;20069;-60
2022/01/30 08:28:19;;;;;;;56.90;8.68;;;6.10;99.90;;;;;;5112528;28;20004;-59
2022/01/30 08:30:45;;;;;;;62.92;10.40;;;6.00;99.90;;;;;;5094050;28;20055;-60
2022/01/30 08:33:15;;;;;;;41.08;7.05;;;6.00;99.90;;;;;;5112551;28;20046;-59
2022/01/30 08:35:40;;;;;;;;;;;6.00;99.90;;;;;;5112949;28;20327;-59
2022/01/30 08:38:06;;;;;;;33.97;7.18;;;6.00;99.90;;;;;;5112899;28;19923;-59
2022/01/30 08:40:32;;;;;;;48.35;8.63;;;6.00;99.90;;;;;;5112575;28;20496;-59
2022/01/30 08:42:59;;;;;;;43.72;9.18;;;6.20;99.90;;;;;;5112165;28;20047;-60
2022/01/30 08:45:25;;;;;;;37.90;7.85;;;6.30;99.90;;;;;;5116691;28;20069;-59
2022/01/30 08:47:51;;;;;;;31.88;6.82;;;6.40;99.90;;;;;;5116741;28;20043;-59
2022/01/30 08:50:19;;;;;;;42.30;8.77;;;6.40;99.90;;;;;;5116466;28;20471;-59
2022/01/30 08:52:45;;;;;;;43.05;7.55;;;6.30;99.90;;;;;;5116504;28;20070;-60
2022/01/30 08:55:12;;;;;;;42.47;8.45;;;6.40;99.90;;;;;;5116539;28;20918;-60
2022/01/30 08:57:38;;;;;;;44.03;7.57;;;6.40;99.90;;;;;;5116299;28;20091;-59
2022/01/30 09:00:07;;;;;;;39.83;7.00;;;6.30;99.90;;;;;;5116285;28;20044;-59
2022/01/30 09:02:32;;;;;;;41.67;7.53;;;6.30;99.90;;;;;;5116309;28;20071;-60
2022/01/30 09:04:58;;;;;;;47.83;8.27;;;6.20;99.90;;;;;;5116163;28;20067;-59
2022/01/30 09:07:24;;;;;;;50.50;9.25;;;6.30;99.90;;;;;;5115970;28;20155;-59
2022/01/30 09:09:49;;;;;;;44.38;8.30;;;6.40;99.90;;;;;;5116168;28;20447;-59
2022/01/30 09:12:15;;;;;;;45.45;9.10;;;6.70;99.90;;;;;;5116157;28;20035;-60
2022/01/30 09:14:42;;;;;;;52.60;9.23;;;6.80;99.90;;;;;;5116130;28;20154;-60
2022/01/30 09:17:13;;;;;;;42.75;6.80;;;6.90;99.90;;;;;;5115830;28;20050;-59
2022/01/30 09:19:46;;;;;;;43.63;9.93;;;6.80;99.90;;;;;;5098545;28;20047;-60
2022/01/30 09:22:15;;;;;;;43.05;8.43;;;6.70;99.90;;;;;;5115939;28;20035;-60
2022/01/30 09:24:41;;;;;;;49.92;8.63;;;6.70;99.90;;;;;;5115920;28;20036;-60
2022/01/30 09:27:08;;;;;;;44.95;8.57;;;6.80;99.90;;;;;;5115583;28;20039;-60
2022/01/30 09:29:35;;;;;;;43.58;8.07;;;6.90;99.90;;;;;;5115652;28;20039;-59
2022/01/30 09:32:02;;;;;;;36.35;6.68;;;6.90;99.90;;;;;;5097450;28;20119;-61
2022/01/30 09:34:28;;;;;;;46.25;6.90;;;7.00;99.90;;;;;;5096672;28;20055;-60
2022/01/30 09:36:54;;;;;;;40.72;7.95;;;7.10;99.90;;;;;;5115889;28;20039;-60
2022/01/30 09:39:19;;;;;;;44.50;6.78;;;7.10;99.90;;;;;;5115277;28;20039;-61
2022/01/30 09:41:48;;;;;;;41.42;7.30;;;7.20;99.90;;;;;;5115927;28;20047;-60
2022/01/30 09:44:14;;;;;;;31.48;6.55;;;7.30;99.90;;;;;;5115319;28;20075;-59
2022/01/30 09:46:42;;;;;;;38.10;7.47;;;7.40;99.90;;;;;;5115283;28;20040;-60
2022/01/30 09:49:08;;;;;;;33.45;7.32;;;7.30;99.90;;;;;;5115341;28;20039;-60
2022/01/30 09:51:36;;;;;;;35.13;7.70;;;7.30;99.90;;;;;;5115091;28;20477;-60
2022/01/30 09:54:03;;;;;;;37.05;7.75;;;7.40;99.90;;;;;;5115298;28;20035;-61
2022/01/30 09:56:29;;;;;;;42.08;7.95;;;7.50;99.90;;;;;;5114154;28;20122;-60
2022/01/30 09:58:54;;;;;;;47.70;8.75;;;7.60;99.90;;;;;;5114970;28;20165;-60
2022/01/30 10:01:20;;;;;;;37.28;7.57;;;7.50;99.90;;;;;;5115140;28;20569;-59
2022/01/30 10:03:49;;;;;;;45.30;7.28;;;7.40;99.90;;;;;;5115148;28;20043;-59
2022/01/30 10:06:20;;;;;;;38.90;8.23;;;7.30;99.90;;;;;;5114868;28;20581;-59
2022/01/30 10:08:52;;;;;;;43.38;8.80;;;7.40;99.90;;;;;;5096428;28;20043;-60
2022/01/30 10:14:05;;;;;;;39.90;8.73;;;7.60;99.90;;;;;;5114594;28;20035;-59
2022/01/30 10:16:41;;;;;;;43.75;9.00;;;7.70;99.90;;;;;;5114623;28;20458;-60
2022/01/30 10:19:17;;;;;;;50.50;8.55;;;7.80;99.90;;;;;;5114696;28;20069;-60
2022/01/30 10:21:43;;;;;;;43.05;8.15;;;8.00;99.90;;;;;;5114198;28;20044;-60
2022/01/30 10:24:27;;;;;;;42.97;7.63;;;8.00;99.90;;;;;;5114395;28;20089;-59
2022/01/30 10:26:57;;;;;;;37.38;6.85;;;7.90;99.90;;;;;;5114446;28;20046;-59
2022/01/30 10:29:28;;;;;;;45.90;8.68;;;7.80;99.90;;;;;;5114475;28;20370;-60
2022/01/30 10:31:59;;;;;;;47.50;8.20;;;7.70;99.90;;;;;;5114434;28;20073;-60
2022/01/30 10:34:26;;;;;;;55.03;8.93;;;7.60;99.90;;;;;;5114249;28;20091;-59
2022/01/30 10:37:19;;;;;;;37.88;7.72;;;7.50;99.90;;;;;;5095673;28;20082;-59
2022/01/30 10:40:00;;;;;;;42.10;9.75;;;7.50;99.90;;;;;;5114174;28;20438;-59
2022/01/30 10:42:35;;;;;;;38.63;8.25;;;7.40;99.90;;;;;;5095845;28;20542;-59
2022/01/30 10:45:02;;;;;;;41.42;8.00;;;7.50;99.90;;;;;;5113844;28;20059;-59
2022/01/30 10:47:30;;;;;;;43.85;7.63;;;7.60;99.90;;;;;;5113752;28;20114;-59
2022/01/30 10:49:57;;;;;;;45.22;10.25;;;7.80;99.90;;;;;;5113988;28;20401;-59
2022/01/30 10:52:23;;;;;;;37.90;7.63;;;7.80;99.90;;;;;;5114145;28;20082;-60
2022/01/30 10:54:50;;;;;;;46.72;8.63;;;7.90;99.90;;;;;;5114190;28;20040;-60
2022/01/30 10:57:16;;;;;;;33.33;7.45;;;8.00;99.90;;;;;;5113660;28;20047;-60
2022/01/30 10:59:43;;;;;;;36.00;7.63;;;8.10;99.90;;;;;;5113626;28;20036;-60
2022/01/30 11:02:20;;;;;;;33.03;8.35;;;8.20;99.90;;;;;;5113602;28;20071;-60
2022/01/30 11:04:48;;;;;;;42.25;8.15;;;8.20;99.90;;;;;;5114046;28;20050;-60
2022/01/30 11:07:22;;;;;;;39.55;8.05;;;8.20;99.90;;;;;;5095204;28;20047;-60
2022/01/30 11:09:55;;;;;;;36.55;8.18;;;8.20;99.90;;;;;;5113577;28;20050;-60
2022/01/30 11:12:31;;;;;;;39.40;7.78;;;8.30;99.90;;;;;;5113471;28;20039;-60
2022/01/30 11:15:15;;;;;;;43.20;9.85;;;8.60;99.90;;;;;;5113404;28;20403;-60
2022/01/30 11:17:43;;;;;;;46.28;15.65;;;8.70;99.90;;;;;;5113336;28;20080;-60
2022/01/30 11:20:13;;;;;;;46.40;10.73;;;8.80;99.90;;;;;;5094806;28;20375;-60
2022/01/30 11:22:42;;;;;;;51.75;13.52;;;8.60;99.90;;;;;;5113071;28;20486;-59
2022/01/30 11:25:09;;;;;;;46.33;16.30;;;8.60;99.90;;;;;;5113211;28;20031;-60
2022/01/30 11:27:36;;;;;;;46.22;14.38;;;8.70;99.90;;;;;;5094282;28;20055;-60
2022/01/30 11:30:03;;;;;;;43.30;10.88;;;9.00;99.90;;;;;;5113227;28;20044;-59
2022/01/30 11:32:29;;;;;;;51.90;15.75;;;8.90;99.90;;;;;;5112726;28;20473;-60
2022/01/30 11:34:55;;;;;;;50.97;14.30;;;9.10;99.90;;;;;;5113115;28;20038;-61
2022/01/30 11:37:24;;;;;;;55.85;16.65;;;9.20;99.90;;;;;;5112827;28;20032;-60
2022/01/30 11:39:53;;;;;;;45.35;12.55;;;9.40;99.90;;;;;;5112757;28;20035;-60
2022/01/30 11:42:36;;;;;;;66.03;23.17;;;9.30;99.90;;;;;;5113149;28;20115;-60
2022/01/30 11:45:08;;;;;;;43.67;10.80;;;9.60;99.90;;;;;;5112917;28;20061;-60
2022/01/30 11:47:52;;;;;;;50.22;14.15;;;9.70;99.90;;;;;;5112571;28;20473;-60
2022/01/30 11:50:25;;;;;;;43.58;10.32;;;9.60;99.90;;;;;;5112882;28;20165;-60
2022/01/30 11:52:59;;;;;;;42.83;11.82;;;9.70;99.90;;;;;;5112934;28;20062;-60
2022/01/30 11:55:49;;;;;;;47.85;11.35;;;9.70;99.90;;;;;;5094434;28;20432;-60
2022/01/30 11:58:33;;;;;;;54.10;10.23;;;9.70;99.90;;;;;;5112734;28;20183;-60
2022/01/30 12:01:22;;;;;;;34.38;9.32;;;9.90;99.90;;;;;;5112626;28;20043;-60
2022/01/30 12:04:00;;;;;;;35.55;9.48;;;9.90;99.90;;;;;;5029797;28;20146;-60
2022/01/30 12:06:26;;;;;;;36.50;8.25;;;10.10;99.90;;;;;;5029697;28;20132;-60
2022/01/30 12:08:52;;;;;;;42.95;9.30;;;10.20;99.90;;;;;;5029642;28;20152;-60
2022/01/30 12:11:36;;;;;;;37.88;8.15;;;10.30;99.90;;;;;;5029731;28;20120;-60
2022/01/30 12:14:05;;;;;;;45.75;8.45;;;10.50;99.90;;;;;;5029744;28;20037;-61
2022/01/30 12:16:43;;;;;;;32.50;7.57;;;10.50;99.90;;;;;;5029607;28;20041;-60
2022/01/30 12:19:11;;;;;;;36.28;7.80;;;10.40;99.90;;;;;;5029110;28;20048;-63
2022/01/30 12:21:37;;;;;;;38.55;7.20;;;10.30;99.90;;;;;;5013054;28;20053;-58
2022/01/30 12:24:25;;;;;;;41.78;7.75;;;9.90;99.90;;;;;;5029041;28;20053;-59
2022/01/30 12:26:53;;;;;;;32.25;8.68;;;9.70;99.90;;;;;;5029270;28;20042;-59
2022/01/30 12:29:38;;;;;;;50.42;13.43;;;9.30;99.90;;;;;;5029160;28;20147;-59
2022/01/30 12:32:22;;;;;;;39.30;11.57;;;9.10;99.90;;;;;;5028997;28;20046;-59
2022/01/30 12:34:56;;;;;;;42.28;11.75;;;8.80;99.90;;;;;;5029020;28;20166;-59
2022/01/30 12:37:28;;;;;;;38.50;9.05;;;8.90;99.90;;;;;;5029072;28;20037;-59
2022/01/30 12:39:55;;;;;;;40.63;7.90;;;8.60;99.90;;;;;;5039415;28;20049;-59
2022/01/30 12:42:22;;;;;;;46.88;9.65;;;8.70;99.90;;;;;;5111997;28;20063;-59
2022/01/30 12:44:48;;;;;;;34.50;8.38;;;8.70;99.90;;;;;;5111487;28;20528;-59
2022/01/30 12:47:16;;;;;;;31.92;8.40;;;9.00;99.90;;;;;;5112195;28;20047;-59
2022/01/30 12:49:47;;;;;;;36.45;8.30;;;9.30;99.90;;;;;;5093413;28;20055;-59
2022/01/30 12:52:27;;;;;;;40.35;9.43;;;9.30;99.90;;;;;;5111626;28;20393;-59
2022/01/30 12:54:55;;;;;;;45.03;8.27;;;9.40;99.90;;;;;;5092808;28;20104;-60
2022/01/30 12:57:21;;;;;;;32.78;6.93;;;9.30;99.90;;;;;;5111839;28;20035;-60
2022/01/30 12:59:56;;;;;;;25.77;7.03;;;9.50;99.90;;;;;;5111715;28;20036;-61
2022/01/30 13:02:23;;;;;;;26.15;6.20;;;9.60;99.90;;;;;;5109339;28;20043;-60
2022/01/30 13:05:04;;;;;;;26.70;6.05;;;9.60;99.90;;;;;;5111893;28;20390;-58
2022/01/30 13:07:30;;;;;;;32.75;6.20;;;9.50;99.90;;;;;;5108251;28;20024;-59
2022/01/30 13:10:13;;;;;;;33.97;6.15;;;9.50;99.90;;;;;;5093146;28;20044;-59
2022/01/30 13:12:41;;;;;;;33.90;7.65;;;9.30;99.90;;;;;;5112064;28;20118;-59
2022/01/30 13:15:08;;;;;;;30.60;6.00;;;9.30;99.90;;;;;;5111957;28;20047;-59
2022/01/30 13:17:34;;;;;;;36.25;6.15;;;9.10;99.90;;;;;;5111906;28;20473;-58
2022/01/30 13:20:00;;;;;;;36.65;7.75;;;9.20;99.90;;;;;;5111508;28;20036;-59
2022/01/30 13:22:34;;;;;;;29.45;5.88;;;9.20;99.90;;;;;;5112012;28;20043;-60
2022/01/30 13:25:03;;;;;;;27.58;6.00;;;9.30;99.90;;;;;;5111511;28;20059;-59
2022/01/30 13:27:29;;;;;;;27.90;5.32;;;9.10;99.90;;;;;;5111889;28;20379;-59
2022/01/30 13:29:55;;;;;;;28.80;5.80;;;9.20;99.90;;;;;;5111816;28;20401;-60
2022/01/30 13:32:24;;;;;;;29.83;5.60;;;8.90;99.90;;;;;;5115050;28;20036;-58
2022/01/30 13:34:50;;;;;;;31.98;6.35;;;8.70;99.90;;;;;;5096723;28;20091;-59
2022/01/30 13:37:20;;;;;;;29.33;6.57;;;8.50;99.90;;;;;;5115409;28;20074;-60
2022/01/30 13:40:00;;;;;;;28.95;5.93;;;8.30;99.90;;;;;;5115011;28;20040;-59
2022/01/30 13:48:00;;;;;;;33.63;6.20;;;8.20;99.90;;;;;;5052177;28;20063;-58
2022/01/30 13:50:31;;;;;;;30.55;6.95;;;8.10;99.90;;;;;;5052009;28;20053;-58
2022/01/30 13:53:18;;;;;;;45.85;7.35;;;7.90;99.90;;;;;;5052030;28;20096;-58
2022/01/30 13:55:56;;;;;;;28.63;6.35;;;8.00;99.90;;;;;;5052051;28;20045;-59
2022/01/30 13:58:26;;;;;;;30.90;5.82;;;8.00;99.90;;;;;;5035222;28;20132;-58